Time;durP1;ratioP1;P1;durP2;ratioP2;P2;SDS_P1;SDS_P2;PMS_P1;PMS_P2;Temp;Humidity;BMP_temperature;BMP_pressure;BME280_temperature;BME280_humidity;BME280_pressure;Samples;Min_cycle;Max_cycle;Signal;HPM_P1;HPM_P2
2022/12/04 00:01:20;;;;;;;49.43;27.03;;;1.00;99.90;;;;;;4842109;29;21091;-53
2022/12/04 00:03:51;;;;;;;45.23;25.90;;;1.00;99.90;;;;;;4833896;29;20491;-52
2022/12/04 00:06:22;;;;;;;49.33;28.70;;;1.10;99.90;;;;;;4834857;29;20495;-51
2022/12/04 00:08:51;;;;;;;49.80;27.80;;;1.00;99.90;;;;;;4842552;29;20472;-51
2022/12/04 00:11:21;;;;;;;47.97;28.20;;;1.10;99.90;;;;;;4839548;29;20483;-54
2022/12/04 00:13:49;;;;;;;49.70;27.63;;;1.00;99.90;;;;;;4842517;29;20465;-51
2022/12/04 00:16:21;;;;;;;46.83;27.00;;;1.10;99.90;;;;;;4842410;29;20525;-51
2022/12/04 00:18:49;;;;;;;49.37;28.67;;;1.20;99.90;;;;;;4842048;29;20511;-52
2022/12/04 00:21:18;;;;;;;49.83;28.17;;;1.10;99.90;;;;;;4842349;29;20469;-51
2022/12/04 00:23:48;;;;;;;50.23;28.57;;;1.10;99.90;;;;;;4842260;29;20521;-53
2022/12/04 00:26:18;;;;;;;49.30;28.10;;;1.00;99.90;;;;;;4849159;29;20473;-51
2022/12/04 00:28:46;;;;;;;47.57;26.57;;;1.00;99.90;;;;;;4841862;29;20476;-51
2022/12/04 00:31:18;;;;;;;47.67;27.93;;;0.90;99.90;;;;;;4841641;29;20515;-53
2022/12/04 00:33:46;;;;;;;51.27;27.13;;;1.00;99.90;;;;;;4841683;29;20476;-50
2022/12/04 00:36:17;;;;;;;50.80;27.63;;;0.90;99.90;;;;;;4841770;29;20488;-51
2022/12/04 00:38:46;;;;;;;50.33;29.10;;;0.90;99.90;;;;;;4841946;29;20488;-51
2022/12/04 00:41:17;;;;;;;50.50;28.80;;;0.90;99.90;;;;;;4841702;29;20532;-54
2022/12/04 00:43:45;;;;;;;48.87;28.87;;;0.90;99.90;;;;;;4841825;29;20468;-52
2022/12/04 00:46:14;;;;;;;51.83;29.17;;;0.90;99.90;;;;;;4842205;29;20479;-53
2022/12/04 00:48:43;;;;;;;47.43;27.50;;;0.90;99.90;;;;;;4841539;29;20537;-50
2022/12/04 00:51:13;;;;;;;46.57;27.17;;;1.00;99.90;;;;;;4842045;29;20533;-52
2022/12/04 00:53:41;;;;;;;51.80;29.53;;;1.10;99.90;;;;;;4841969;29;20991;-51
2022/12/04 00:56:13;;;;;;;53.17;29.40;;;1.00;99.90;;;;;;4849005;29;20479;-49
2022/12/04 00:58:43;;;;;;;52.57;29.37;;;1.00;99.90;;;;;;4841632;29;20516;-50
2022/12/04 01:01:13;;;;;;;50.73;27.67;;;0.90;99.90;;;;;;4841414;29;20514;-49
2022/12/04 01:03:42;;;;;;;55.03;28.87;;;0.90;99.90;;;;;;4841918;29;20472;-51
2022/12/04 01:06:18;;;;;;;58.27;29.67;;;1.00;99.90;;;;;;4842125;29;20488;-52
2022/12/04 01:08:47;;;;;;;52.63;29.70;;;0.90;99.90;;;;;;4841872;29;20486;-50
2022/12/04 01:11:15;;;;;;;54.40;28.80;;;0.90;99.90;;;;;;4842087;29;20487;-53
2022/12/04 01:13:45;;;;;;;50.90;28.50;;;0.90;99.90;;;;;;4841898;29;20480;-51
2022/12/04 01:16:17;;;;;;;53.13;29.27;;;0.90;99.90;;;;;;4841966;29;20541;-53
2022/12/04 01:18:45;;;;;;;54.07;28.77;;;1.00;99.90;;;;;;4844319;29;20495;-52
2022/12/04 01:21:13;;;;;;;45.43;26.63;;;1.00;99.90;;;;;;4845379;29;20468;-52
2022/12/04 01:23:42;;;;;;;54.50;29.77;;;1.00;99.90;;;;;;4845273;29;20992;-51
2022/12/04 01:26:11;;;;;;;55.27;31.30;;;1.00;99.90;;;;;;4852056;29;20528;-49
2022/12/04 01:28:39;;;;;;;52.63;29.40;;;1.00;99.90;;;;;;4844895;29;20529;-51
2022/12/04 01:31:11;;;;;;;53.33;29.60;;;1.00;99.90;;;;;;4844617;29;20492;-51
2022/12/04 01:33:40;;;;;;;55.70;29.80;;;0.90;99.90;;;;;;4844814;29;20979;-53
2022/12/04 01:36:11;;;;;;;51.23;29.20;;;0.90;99.90;;;;;;4845268;29;20472;-52
2022/12/04 01:38:39;;;;;;;50.43;28.27;;;0.90;99.90;;;;;;4844743;29;20492;-51
2022/12/04 01:41:09;;;;;;;53.23;30.13;;;1.00;99.90;;;;;;4844911;29;20484;-49
2022/12/04 01:43:39;;;;;;;53.33;29.43;;;1.10;99.90;;;;;;4844786;29;20492;-53
2022/12/04 01:46:09;;;;;;;53.30;30.87;;;1.10;99.90;;;;;;4845150;29;20478;-51
2022/12/04 01:48:40;;;;;;;50.80;28.30;;;1.00;99.90;;;;;;4844706;29;20483;-53
2022/12/04 01:51:14;;;;;;;54.93;29.47;;;1.00;99.90;;;;;;4845009;29;20564;-52
2022/12/04 01:53:45;;;;;;;52.07;29.63;;;1.00;99.90;;;;;;4844576;29;20491;-53
2022/12/04 01:56:15;;;;;;;47.83;27.80;;;1.00;99.90;;;;;;4851794;29;20471;-52
2022/12/04 01:58:48;;;;;;;48.57;27.90;;;1.10;99.90;;;;;;4844278;29;20496;-52
2022/12/04 02:01:18;;;;;;;47.07;27.00;;;1.10;99.90;;;;;;4844216;29;20481;-51
2022/12/04 02:03:46;;;;;;;47.77;27.47;;;1.10;99.90;;;;;;4844460;29;20491;-53
2022/12/04 02:06:14;;;;;;;45.17;26.73;;;1.10;99.90;;;;;;4844806;29;20471;-50
2022/12/04 02:08:42;;;;;;;46.13;27.07;;;1.10;99.90;;;;;;4844329;29;20473;-53
2022/12/04 02:11:21;;;;;;;45.47;26.07;;;1.20;99.90;;;;;;4844680;29;20472;-51
2022/12/04 02:13:57;;;;;;;46.67;27.37;;;1.20;99.90;;;;;;4844300;29;20472;-52
2022/12/04 02:16:34;;;;;;;43.90;26.10;;;1.20;99.90;;;;;;4844330;29;20476;-52
2022/12/04 02:19:16;;;;;;;45.47;25.40;;;1.20;99.90;;;;;;4844446;29;20496;-51
2022/12/04 02:21:47;;;;;;;42.90;26.23;;;1.20;99.90;;;;;;4844274;29;20984;-52
2022/12/04 02:24:31;;;;;;;41.53;24.60;;;1.00;99.90;;;;;;4844418;29;20480;-52
2022/12/04 02:27:03;;;;;;;43.10;25.87;;;1.10;99.90;;;;;;4850934;29;20479;-52
2022/12/04 02:29:38;;;;;;;44.23;25.50;;;1.10;99.90;;;;;;4842820;29;20495;-51
2022/12/04 02:32:15;;;;;;;41.00;25.50;;;1.10;99.90;;;;;;4843539;29;20510;-54
2022/12/04 02:34:51;;;;;;;44.83;26.73;;;1.10;99.90;;;;;;4843625;29;20495;-50
2022/12/04 02:37:27;;;;;;;39.67;24.10;;;1.10;99.90;;;;;;4843823;29;20999;-52
2022/12/04 02:40:01;;;;;;;43.57;24.23;;;1.20;99.90;;;;;;4844100;29;20479;-52
2022/12/04 02:42:38;;;;;;;43.13;25.40;;;1.10;99.90;;;;;;4843709;29;20481;-52
2022/12/04 02:45:11;;;;;;;42.77;24.87;;;1.10;99.90;;;;;;4843951;29;20502;-52
2022/12/04 02:47:41;;;;;;;42.10;24.43;;;1.10;99.90;;;;;;4843114;29;20533;-52
2022/12/04 02:50:13;;;;;;;45.20;25.17;;;1.10;99.90;;;;;;4843532;29;20505;-53
2022/12/04 02:52:45;;;;;;;45.13;27.23;;;1.10;99.90;;;;;;4843554;29;20528;-52
2022/12/04 02:55:19;;;;;;;42.23;24.70;;;1.10;99.90;;;;;;4847066;29;20468;-50
2022/12/04 02:57:51;;;;;;;40.53;24.07;;;1.10;99.90;;;;;;4846283;29;20858;-52
2022/12/04 03:00:22;;;;;;;41.30;24.90;;;1.20;99.90;;;;;;4843311;29;20488;-53
2022/12/04 03:02:56;;;;;;;40.17;23.30;;;1.10;99.90;;;;;;4842980;29;20480;-51
2022/12/04 03:05:31;;;;;;;44.00;25.23;;;1.20;99.90;;;;;;4843211;29;20476;-52
2022/12/04 03:08:05;;;;;;;45.40;26.07;;;1.30;99.90;;;;;;4843694;29;20957;-52
2022/12/04 03:10:38;;;;;;;43.10;25.93;;;1.30;99.90;;;;;;4843227;29;20476;-52
2022/12/04 03:13:09;;;;;;;45.67;26.37;;;1.20;99.90;;;;;;4843438;29;21021;-53
2022/12/04 03:15:43;;;;;;;46.77;27.57;;;1.10;99.90;;;;;;4843230;29;20464;-50
2022/12/04 03:18:16;;;;;;;41.83;25.00;;;1.10;99.90;;;;;;4843287;29;20487;-54
2022/12/04 03:20:48;;;;;;;44.33;25.13;;;1.20;99.90;;;;;;4824929;29;20469;-52
2022/12/04 03:23:22;;;;;;;42.00;25.10;;;1.20;99.90;;;;;;4825327;29;20482;-52
2022/12/04 03:25:56;;;;;;;45.17;25.77;;;1.30;99.90;;;;;;4843817;29;20467;-51
2022/12/04 03:28:31;;;;;;;42.87;24.97;;;1.20;99.90;;;;;;4842852;29;20480;-54
2022/12/04 03:31:07;;;;;;;42.27;25.60;;;1.30;99.90;;;;;;4842866;29;20580;-51
2022/12/04 03:33:41;;;;;;;44.77;27.00;;;1.30;99.90;;;;;;4842993;29;20564;-52
2022/12/04 03:36:16;;;;;;;46.03;25.20;;;1.30;99.90;;;;;;4842721;29;20810;-53
2022/12/04 03:38:50;;;;;;;42.93;26.57;;;1.30;99.90;;;;;;4842697;29;21107;-54
2022/12/04 03:41:25;;;;;;;44.67;26.17;;;1.40;99.90;;;;;;4842981;29;20811;-53
2022/12/04 03:44:01;;;;;;;45.37;24.47;;;1.30;99.90;;;;;;4842927;29;20535;-52
2022/12/04 03:46:38;;;;;;;43.20;25.40;;;1.30;99.90;;;;;;4842973;29;20976;-53
2022/12/04 03:49:15;;;;;;;47.67;28.57;;;1.30;99.90;;;;;;4842657;29;20524;-53
2022/12/04 03:51:48;;;;;;;46.73;26.70;;;1.30;99.90;;;;;;4842287;29;20476;-52
2022/12/04 03:54:19;;;;;;;47.53;26.43;;;1.30;99.90;;;;;;4842885;29;20488;-52
2022/12/04 03:56:51;;;;;;;46.57;26.70;;;1.30;99.90;;;;;;4849168;29;20481;-53
2022/12/04 03:59:23;;;;;;;44.50;25.33;;;1.30;99.90;;;;;;4842466;29;20566;-51
2022/12/04 04:01:56;;;;;;;47.80;26.23;;;1.30;99.90;;;;;;4842000;29;20921;-53
2022/12/04 04:04:30;;;;;;;42.37;24.60;;;1.40;99.90;;;;;;4842685;29;20559;-53
2022/12/04 04:07:03;;;;;;;46.60;26.33;;;1.40;99.90;;;;;;4842398;29;20471;-51
2022/12/04 04:09:35;;;;;;;44.77;25.97;;;1.30;99.90;;;;;;4842248;29;20468;-52
2022/12/04 04:12:08;;;;;;;46.63;26.80;;;1.40;99.90;;;;;;4842625;29;21000;-52
2022/12/04 04:26:09;;;;;;;40.03;23.27;;;1.30;99.90;;;;;;4842486;29;20485;-52
2022/12/04 04:28:38;;;;;;;41.30;23.67;;;1.40;99.90;;;;;;4841829;29;20472;-53
2022/12/04 04:31:13;;;;;;;50.92;31.95;;;1.40;99.90;;;;;;4841142;29;20450;-53
2022/12/04 04:33:53;;;;;;;44.33;27.20;;;1.40;99.90;;;;;;4841839;29;20235;-53
2022/12/04 04:36:26;;;;;;;45.20;27.17;;;1.30;99.90;;;;;;4842067;29;20474;-52
2022/12/04 04:39:02;;;;;;;45.73;26.10;;;1.40;99.90;;;;;;4842158;29;20508;-52
2022/12/04 04:41:39;;;;;;;43.63;26.17;;;1.30;99.90;;;;;;4841677;29;20487;-53
2022/12/04 04:44:15;;;;;;;45.93;25.37;;;1.40;99.90;;;;;;4836211;29;20497;-53
2022/12/04 04:46:48;;;;;;;46.27;27.00;;;1.50;99.90;;;;;;4833201;29;20839;-53
2022/12/04 04:49:19;;;;;;;45.37;27.33;;;1.40;99.90;;;;;;4834340;29;21006;-53
2022/12/04 04:51:47;;;;;;;45.73;25.90;;;1.40;99.90;;;;;;4841636;29;20537;-53
2022/12/04 04:54:17;;;;;;;45.57;24.67;;;1.40;99.90;;;;;;4845901;29;20498;-52
2022/12/04 04:57:27;;;;;;;45.23;25.90;;;1.40;99.90;;;;;;4840067;29;20466;-54
2022/12/04 04:59:55;;;;;;;48.47;27.00;;;1.40;99.90;;;;;;4845578;29;21016;-53
2022/12/04 05:02:26;;;;;;;46.20;26.07;;;1.30;99.90;;;;;;4844999;29;20583;-52
2022/12/04 05:04:55;;;;;;;42.97;23.97;;;1.30;99.90;;;;;;4845838;29;20475;-52
2022/12/04 05:07:24;;;;;;;49.33;27.03;;;1.50;99.90;;;;;;4845432;29;20483;-53
2022/12/04 05:09:52;;;;;;;48.13;26.30;;;1.40;99.90;;;;;;4845569;29;20487;-53
2022/12/04 05:12:20;;;;;;;42.80;25.63;;;1.40;99.90;;;;;;4845798;29;20544;-52
2022/12/04 05:14:49;;;;;;;48.23;26.03;;;1.40;99.90;;;;;;4827114;29;20485;-52
2022/12/04 05:17:17;;;;;;;41.60;25.47;;;1.40;99.90;;;;;;4827281;29;20484;-53
2022/12/04 05:19:55;;;;;;;47.77;26.27;;;1.30;99.90;;;;;;4836555;29;20957;-53
2022/12/04 05:22:28;;;;;;;44.67;26.47;;;1.30;99.90;;;;;;4845138;29;20479;-50
2022/12/04 05:24:56;;;;;;;46.67;26.03;;;1.20;99.90;;;;;;4846116;29;20499;-53
2022/12/04 05:27:25;;;;;;;47.97;26.87;;;1.20;99.90;;;;;;4850863;29;20965;-49
2022/12/04 05:29:54;;;;;;;44.77;25.90;;;1.30;99.90;;;;;;4844545;29;20542;-52
2022/12/04 05:32:25;;;;;;;45.93;25.43;;;1.30;99.90;;;;;;4844760;29;20902;-54
2022/12/04 05:34:55;;;;;;;48.40;24.67;;;1.30;99.90;;;;;;4845191;29;20991;-52
2022/12/04 05:37:25;;;;;;;46.73;26.13;;;1.40;99.90;;;;;;4844246;29;20488;-49
2022/12/04 05:39:53;;;;;;;49.93;26.93;;;1.30;99.90;;;;;;4844896;29;20496;-53
2022/12/04 05:42:22;;;;;;;46.70;26.47;;;1.40;99.90;;;;;;4844738;29;20515;-53
2022/12/04 05:44:50;;;;;;;47.80;27.83;;;1.30;99.90;;;;;;4844841;29;20493;-50
2022/12/04 05:47:18;;;;;;;47.67;26.63;;;1.30;99.90;;;;;;4845150;29;20956;-52
2022/12/04 05:49:46;;;;;;;47.63;25.97;;;1.40;99.90;;;;;;4844525;29;20477;-51
2022/12/04 05:52:14;;;;;;;41.63;24.43;;;1.40;99.90;;;;;;4843126;29;20472;-52
2022/12/04 05:54:44;;;;;;;47.53;27.00;;;1.40;99.90;;;;;;4834825;29;20540;-52
2022/12/04 05:57:12;;;;;;;48.13;27.20;;;1.40;99.90;;;;;;4851657;29;20476;-52
2022/12/04 05:59:40;;;;;;;45.97;25.50;;;1.40;99.90;;;;;;4844307;29;20488;-52
2022/12/04 06:02:08;;;;;;;43.57;25.37;;;1.40;99.90;;;;;;4843942;29;20540;-53
2022/12/04 06:04:37;;;;;;;45.67;25.50;;;1.40;99.90;;;;;;4844232;29;20961;-54
2022/12/04 06:07:05;;;;;;;45.53;25.90;;;1.40;99.90;;;;;;4844599;29;20480;-53
2022/12/04 06:09:33;;;;;;;50.57;27.60;;;1.30;99.90;;;;;;4844273;29;20469;-53
2022/12/04 06:12:04;;;;;;;44.87;25.57;;;1.40;99.90;;;;;;4844672;29;20480;-54
2022/12/04 06:14:32;;;;;;;46.73;25.97;;;1.40;99.90;;;;;;4844447;29;20488;-51
2022/12/04 06:17:06;;;;;;;47.40;26.50;;;1.40;99.90;;;;;;4844680;29;20840;-54
2022/12/04 06:19:34;;;;;;;45.70;25.87;;;1.40;99.90;;;;;;4844278;29;20503;-54
2022/12/04 06:22:02;;;;;;;46.13;25.23;;;1.40;99.90;;;;;;4844348;29;20468;-53
2022/12/04 06:24:30;;;;;;;47.27;25.60;;;1.40;99.90;;;;;;4844077;29;20477;-52
2022/12/04 06:26:59;;;;;;;45.47;24.87;;;1.40;99.90;;;;;;4850958;29;20495;-54
2022/12/04 06:29:49;;;;;;;48.57;25.87;;;1.40;99.90;;;;;;4843801;29;20526;-53
2022/12/04 06:32:17;;;;;;;43.77;25.23;;;1.50;99.90;;;;;;4843829;29;20492;-53
2022/12/04 06:34:51;;;;;;;44.37;25.07;;;1.50;99.90;;;;;;4843747;29;20485;-52
2022/12/04 06:37:19;;;;;;;45.33;25.77;;;1.40;99.90;;;;;;4844180;29;21000;-54
2022/12/04 06:39:48;;;;;;;46.03;25.07;;;1.40;99.90;;;;;;4843692;29;20504;-54
2022/12/04 06:42:16;;;;;;;43.53;25.63;;;1.50;99.90;;;;;;4843922;29;20469;-53
2022/12/04 06:44:44;;;;;;;45.87;24.93;;;1.40;99.90;;;;;;4843783;29;20595;-53
2022/12/04 06:47:13;;;;;;;44.43;25.37;;;1.40;99.90;;;;;;4843507;29;20480;-54
2022/12/04 06:49:41;;;;;;;43.77;26.20;;;1.40;99.90;;;;;;4843803;29;20988;-54
2022/12/04 06:52:09;;;;;;;42.40;24.53;;;1.40;99.90;;;;;;4843406;29;20561;-52
2022/12/04 06:54:37;;;;;;;43.83;26.33;;;1.40;99.90;;;;;;4843605;29;20478;-53
2022/12/04 06:57:05;;;;;;;45.13;26.17;;;1.40;99.90;;;;;;4850724;29;21008;-52
2022/12/04 06:59:33;;;;;;;42.77;24.63;;;1.40;99.90;;;;;;4843371;29;20988;-53
2022/12/04 07:02:01;;;;;;;43.87;24.63;;;1.40;99.90;;;;;;4843152;29;20841;-53
2022/12/04 07:04:31;;;;;;;42.00;24.87;;;1.40;99.90;;;;;;4843646;29;20477;-52
2022/12/04 07:06:59;;;;;;;43.43;24.07;;;1.40;99.90;;;;;;4843296;29;20484;-53
2022/12/04 07:09:27;;;;;;;47.60;26.47;;;1.40;99.90;;;;;;4843297;29;20559;-49
2022/12/04 07:11:55;;;;;;;44.67;25.20;;;1.40;99.90;;;;;;4843349;29;20483;-55
2022/12/04 07:14:23;;;;;;;46.37;24.90;;;1.50;99.90;;;;;;4843391;29;20487;-53
2022/12/04 07:16:51;;;;;;;45.17;25.33;;;1.50;99.90;;;;;;4843021;29;20476;-52
2022/12/04 07:19:19;;;;;;;42.57;24.60;;;1.50;99.90;;;;;;4843534;29;20992;-51
2022/12/04 07:21:48;;;;;;;46.07;26.77;;;1.50;99.90;;;;;;4842908;29;20508;-53
2022/12/04 07:24:17;;;;;;;47.03;25.80;;;1.40;99.90;;;;;;4843282;29;20842;-52
2022/12/04 07:26:45;;;;;;;43.30;25.37;;;1.40;99.90;;;;;;4844268;29;20485;-53
2022/12/04 07:29:13;;;;;;;45.83;25.73;;;1.50;99.90;;;;;;4843051;29;20477;-54
2022/12/04 07:31:43;;;;;;;44.97;25.60;;;1.60;99.90;;;;;;4842527;29;20501;-50
2022/12/04 07:34:11;;;;;;;45.47;25.77;;;1.60;99.90;;;;;;4843284;29;20512;-51
2022/12/04 07:36:40;;;;;;;45.03;25.53;;;1.50;99.90;;;;;;4842931;29;20596;-53
2022/12/04 07:39:09;;;;;;;43.67;25.30;;;1.40;99.90;;;;;;4842712;29;20472;-52
2022/12/04 07:41:37;;;;;;;43.40;24.37;;;1.50;99.90;;;;;;4842860;29;21007;-54
2022/12/04 07:44:07;;;;;;;43.93;25.00;;;1.40;99.90;;;;;;4842761;29;20496;-53
2022/12/04 07:46:35;;;;;;;43.60;24.57;;;1.40;99.90;;;;;;4842917;29;20484;-52
2022/12/04 07:49:03;;;;;;;46.20;27.37;;;1.40;99.90;;;;;;4843082;29;20468;-53
2022/12/04 07:51:31;;;;;;;42.23;24.43;;;1.50;99.90;;;;;;4842287;29;20472;-53
2022/12/04 07:53:59;;;;;;;43.03;25.83;;;1.50;99.90;;;;;;4842757;29;20468;-53
2022/12/04 07:56:33;;;;;;;45.43;26.37;;;1.40;99.90;;;;;;4848279;29;20484;-52
2022/12/04 07:59:01;;;;;;;43.67;25.60;;;1.40;99.90;;;;;;4842537;29;20472;-53
2022/12/04 08:01:30;;;;;;;45.40;25.13;;;1.50;99.90;;;;;;4841963;29;20491;-52
2022/12/04 08:04:00;;;;;;;51.60;26.60;;;1.50;99.90;;;;;;4842415;29;20504;-52
2022/12/04 08:06:29;;;;;;;43.33;25.00;;;1.50;99.90;;;;;;4842444;29;20898;-51
2022/12/04 08:08:58;;;;;;;46.10;26.50;;;1.40;99.90;;;;;;4841673;29;20484;-51
2022/12/04 08:11:34;;;;;;;48.50;26.70;;;1.50;99.90;;;;;;4842369;29;20472;-53
2022/12/04 08:14:07;;;;;;;47.17;26.60;;;1.50;99.90;;;;;;4842338;29;20468;-53
2022/12/04 08:16:35;;;;;;;42.90;23.70;;;1.50;99.90;;;;;;4842479;29;20472;-53
2022/12/04 08:19:04;;;;;;;42.27;23.43;;;1.60;99.90;;;;;;4842619;29;20482;-53
2022/12/04 08:21:33;;;;;;;50.13;26.50;;;1.70;99.90;;;;;;4842299;29;20993;-53
2022/12/04 08:24:01;;;;;;;50.93;25.77;;;1.60;99.90;;;;;;4842449;29;20976;-53
2022/12/04 08:26:30;;;;;;;46.77;26.20;;;1.70;99.90;;;;;;4847530;29;20965;-53
2022/12/04 08:29:01;;;;;;;47.77;26.60;;;1.70;99.90;;;;;;4842178;29;20875;-54
2022/12/04 08:31:31;;;;;;;48.87;27.83;;;1.70;99.90;;;;;;4841820;29;20495;-53
2022/12/04 08:34:01;;;;;;;48.00;26.10;;;1.70;99.90;;;;;;4842375;29;20803;-51
2022/12/04 08:36:29;;;;;;;51.97;28.00;;;1.70;99.90;;;;;;4842184;29;20483;-53
2022/12/04 08:38:58;;;;;;;51.30;27.50;;;1.70;99.90;;;;;;4842369;29;20564;-54
2022/12/04 08:41:27;;;;;;;45.80;25.97;;;1.70;99.90;;;;;;4841732;29;20508;-53
2022/12/04 08:43:56;;;;;;;48.57;27.47;;;1.70;99.90;;;;;;4841922;29;20484;-52
2022/12/04 08:46:27;;;;;;;48.70;27.47;;;1.80;99.90;;;;;;4841823;29;20492;-51
2022/12/04 08:48:55;;;;;;;45.20;25.77;;;1.70;99.90;;;;;;4842255;29;20529;-53
2022/12/04 08:51:26;;;;;;;50.40;27.80;;;1.80;99.90;;;;;;4841925;29;20472;-52
2022/12/04 08:53:55;;;;;;;53.90;27.77;;;1.80;99.90;;;;;;4840983;29;20475;-54
2022/12/04 08:56:24;;;;;;;51.00;28.23;;;1.80;99.90;;;;;;4847345;29;20480;-53
2022/12/04 08:58:54;;;;;;;51.63;28.33;;;1.80;99.90;;;;;;4840024;29;20488;-53
2022/12/04 09:01:24;;;;;;;52.13;27.43;;;1.70;99.90;;;;;;4841495;29;21017;-52
2022/12/04 09:03:54;;;;;;;49.97;27.30;;;1.70;99.90;;;;;;4841819;29;20878;-54
2022/12/04 09:06:23;;;;;;;56.97;29.43;;;1.70;99.90;;;;;;4842073;29;21061;-52
2022/12/04 09:08:53;;;;;;;54.63;28.13;;;1.90;99.90;;;;;;4841894;29;20495;-54
2022/12/04 09:11:23;;;;;;;50.63;26.77;;;1.80;99.90;;;;;;4841722;29;20472;-54
2022/12/04 09:13:52;;;;;;;57.50;29.17;;;1.90;99.90;;;;;;4841809;29;20608;-52
2022/12/04 09:16:22;;;;;;;54.57;27.27;;;1.80;99.90;;;;;;4841982;29;20837;-53
2022/12/04 09:18:50;;;;;;;54.37;28.70;;;1.80;99.90;;;;;;4841554;29;20475;-52
2022/12/04 09:21:22;;;;;;;57.83;28.70;;;1.80;99.90;;;;;;4841577;29;20492;-52
2022/12/04 09:23:51;;;;;;;52.87;29.03;;;1.90;99.90;;;;;;4841981;29;20472;-51
2022/12/04 09:26:23;;;;;;;54.07;29.17;;;1.90;99.90;;;;;;4848502;29;20484;-53
2022/12/04 09:28:52;;;;;;;50.17;27.43;;;1.90;99.90;;;;;;4841429;29;20894;-52
2022/12/04 09:31:21;;;;;;;55.23;30.23;;;2.00;99.90;;;;;;4841015;29;20496;-54
2022/12/04 09:33:49;;;;;;;56.60;28.50;;;2.10;99.90;;;;;;4841300;29;20483;-53
2022/12/04 09:36:19;;;;;;;58.30;29.40;;;2.10;99.90;;;;;;4841541;29;20484;-53
2022/12/04 09:38:49;;;;;;;50.30;26.90;;;2.00;99.90;;;;;;4842633;29;20558;-54
2022/12/04 09:41:53;;;;;;;57.53;30.13;;;2.20;99.90;;;;;;4844515;29;20492;-54
2022/12/04 09:44:24;;;;;;;55.83;27.87;;;2.20;99.90;;;;;;4844592;29;20491;-52
2022/12/04 09:46:58;;;;;;;59.07;30.47;;;2.20;99.90;;;;;;4844909;29;20896;-52
2022/12/04 09:49:30;;;;;;;57.87;29.83;;;2.20;99.90;;;;;;4843873;29;20467;-54
2022/12/04 09:52:03;;;;;;;55.60;29.57;;;2.20;99.90;;;;;;4844258;29;20480;-55
2022/12/04 09:54:38;;;;;;;60.70;30.07;;;2.30;99.90;;;;;;4844439;29;20484;-51
2022/12/04 09:57:14;;;;;;;55.30;29.33;;;2.30;99.90;;;;;;4851360;29;20500;-53
2022/12/04 09:59:42;;;;;;;54.93;27.90;;;2.30;99.90;;;;;;4844450;29;20798;-54
2022/12/04 10:02:26;;;;;;;60.40;30.37;;;2.50;99.90;;;;;;4844321;29;21096;-54
2022/12/04 10:04:55;;;;;;;57.93;30.87;;;2.40;99.90;;;;;;4844548;29;20563;-54
2022/12/04 10:07:29;;;;;;;58.23;29.83;;;2.40;99.90;;;;;;4844708;29;20487;-53
2022/12/04 10:10:03;;;;;;;58.33;29.47;;;2.40;99.90;;;;;;4844576;29;21044;-53
2022/12/04 10:12:40;;;;;;;56.20;30.00;;;2.50;99.90;;;;;;4844408;29;20472;-53
2022/12/04 10:15:26;;;;;;;56.10;29.43;;;2.50;99.90;;;;;;4844583;29;20479;-52
2022/12/04 10:18:10;;;;;;;55.67;28.77;;;2.60;99.90;;;;;;4844395;29;20484;-52
2022/12/04 10:21:11;;;;;;;48.83;27.13;;;2.60;99.90;;;;;;4844303;29;20471;-52
2022/12/04 10:23:51;;;;;;;54.27;28.80;;;2.60;99.90;;;;;;4844035;29;20503;-53
2022/12/04 10:26:25;;;;;;;48.30;27.57;;;2.70;99.90;;;;;;4827720;29;20521;-54
2022/12/04 10:28:56;;;;;;;50.13;28.43;;;2.70;99.90;;;;;;4824185;29;20482;-54
2022/12/04 10:31:26;;;;;;;49.17;27.23;;;2.70;99.90;;;;;;4822830;29;20538;-55
2022/12/04 10:33:58;;;;;;;50.50;27.00;;;2.70;99.90;;;;;;4822273;29;20500;-52
2022/12/04 10:36:31;;;;;;;50.60;27.93;;;2.70;99.90;;;;;;4822532;29;20481;-55
2022/12/04 10:39:06;;;;;;;46.33;25.57;;;2.70;99.90;;;;;;4822704;29;20840;-54
2022/12/04 10:41:42;;;;;;;44.97;26.47;;;2.70;99.90;;;;;;4823703;29;20497;-52
2022/12/04 10:44:14;;;;;;;52.63;27.13;;;2.70;99.90;;;;;;4820838;29;20553;-55
2022/12/04 10:46:42;;;;;;;49.60;27.83;;;2.70;99.90;;;;;;4820784;29;20994;-54
2022/12/04 10:49:17;;;;;;;49.30;26.40;;;2.80;99.90;;;;;;4820934;29;20890;-52
2022/12/04 10:51:46;;;;;;;48.20;27.27;;;2.70;99.90;;;;;;4824973;29;20481;-52
2022/12/04 10:54:21;;;;;;;53.10;27.03;;;2.80;99.90;;;;;;4824035;29;20843;-53
2022/12/04 10:56:51;;;;;;;50.07;26.90;;;2.90;99.90;;;;;;4839876;29;20470;-53
2022/12/04 10:59:19;;;;;;;49.67;26.60;;;2.90;99.90;;;;;;4843664;29;20484;-54
2022/12/04 11:01:49;;;;;;;48.03;25.13;;;2.90;99.90;;;;;;4842868;29;20488;-53
2022/12/04 11:04:22;;;;;;;45.63;24.93;;;3.00;99.90;;;;;;4843577;29;20472;-53
2022/12/04 11:06:51;;;;;;;49.80;26.90;;;3.00;99.90;;;;;;4843610;29;20477;-54
2022/12/04 11:09:23;;;;;;;47.07;26.80;;;3.00;99.90;;;;;;4840294;29;20493;-55
2022/12/04 11:11:52;;;;;;;46.40;26.73;;;3.00;99.90;;;;;;4834705;29;20485;-53
2022/12/04 11:14:22;;;;;;;45.57;26.13;;;3.10;99.90;;;;;;4836664;29;20875;-54
2022/12/04 11:17:01;;;;;;;46.67;25.60;;;3.00;99.90;;;;;;4837817;29;20489;-52
2022/12/04 11:19:31;;;;;;;47.00;26.57;;;3.10;99.90;;;;;;4838174;29;20541;-54
2022/12/04 11:22:05;;;;;;;45.50;26.03;;;3.00;99.90;;;;;;4825194;29;20500;-55
2022/12/04 11:24:37;;;;;;;46.33;26.60;;;3.00;99.90;;;;;;4828477;29;20485;-54
2022/12/04 11:27:07;;;;;;;43.53;25.03;;;3.00;99.90;;;;;;4849896;29;20476;-53
2022/12/04 11:29:41;;;;;;;42.13;25.23;;;3.10;99.90;;;;;;4835754;29;20485;-52
2022/12/04 11:32:20;;;;;;;44.77;24.33;;;3.10;99.90;;;;;;4838062;29;20550;-53
2022/12/04 11:34:51;;;;;;;45.27;25.73;;;3.10;99.90;;;;;;4841153;29;21037;-53
2022/12/04 11:37:22;;;;;;;46.63;24.87;;;3.20;99.90;;;;;;4843045;29;20944;-54
2022/12/04 11:39:53;;;;;;;44.60;25.53;;;3.10;99.90;;;;;;4842849;29;20481;-53
2022/12/04 11:42:25;;;;;;;43.17;26.77;;;3.10;99.90;;;;;;4842945;29;20491;-54
2022/12/04 11:44:56;;;;;;;45.50;26.87;;;3.20;99.90;;;;;;4835998;29;20517;-53
2022/12/04 11:47:27;;;;;;;45.30;25.47;;;3.20;99.90;;;;;;4835970;29;20565;-53
2022/12/04 11:50:02;;;;;;;47.27;24.43;;;3.10;99.90;;;;;;4833559;29;20478;-52
2022/12/04 11:52:44;;;;;;;43.17;24.73;;;3.10;99.90;;;;;;4841397;29;20479;-53
2022/12/04 11:55:21;;;;;;;43.40;24.77;;;3.10;99.90;;;;;;4842604;29;20875;-51
2022/12/04 11:58:10;;;;;;;40.43;22.40;;;3.10;99.90;;;;;;4842702;29;20483;-54
2022/12/04 12:00:49;;;;;;;46.10;26.30;;;3.20;99.90;;;;;;4841704;29;20899;-54
2022/12/04 12:03:27;;;;;;;42.77;25.40;;;3.10;99.90;;;;;;4835857;29;20853;-55
2022/12/04 12:06:18;;;;;;;43.93;25.30;;;3.20;99.90;;;;;;4842479;29;20476;-54
2022/12/04 12:09:08;;;;;;;42.30;24.87;;;3.20;99.90;;;;;;4835333;29;20492;-53
2022/12/04 12:11:44;;;;;;;41.03;25.00;;;3.10;99.90;;;;;;4834809;29;20824;-54
2022/12/04 12:14:20;;;;;;;44.73;25.70;;;3.10;99.90;;;;;;4842164;29;20472;-54
2022/12/04 12:16:58;;;;;;;44.97;26.03;;;3.20;99.90;;;;;;4840753;29;20819;-54
2022/12/04 12:19:59;;;;;;;44.27;26.47;;;3.10;99.90;;;;;;4842384;29;20493;-54
2022/12/04 12:22:52;;;;;;;48.50;26.00;;;3.30;99.90;;;;;;4841231;29;20580;-54
2022/12/04 12:25:24;;;;;;;41.87;24.77;;;3.20;99.90;;;;;;4831696;29;20530;-55
2022/12/04 12:28:11;;;;;;;47.73;25.87;;;3.20;99.90;;;;;;4841620;29;20486;-52
2022/12/04 12:30:51;;;;;;;46.70;26.13;;;3.20;99.90;;;;;;4826979;29;20473;-54
2022/12/04 12:33:22;;;;;;;40.40;24.67;;;3.30;99.90;;;;;;4842914;29;20493;-54
2022/12/04 12:36:00;;;;;;;46.17;26.70;;;3.40;99.90;;;;;;4842058;29;20477;-55
2022/12/04 12:38:34;;;;;;;43.27;25.30;;;3.30;99.90;;;;;;4841984;29;20475;-54
2022/12/04 12:41:05;;;;;;;42.90;25.80;;;3.30;99.90;;;;;;4842047;29;20475;-54
2022/12/04 12:43:38;;;;;;;42.43;26.13;;;3.30;99.90;;;;;;4841488;29;20496;-54
2022/12/04 12:46:10;;;;;;;43.37;26.50;;;3.30;99.90;;;;;;4841976;29;20605;-54
2022/12/04 12:48:46;;;;;;;42.40;25.47;;;3.30;99.90;;;;;;4841366;29;20510;-55
2022/12/04 12:51:27;;;;;;;46.37;26.63;;;3.40;99.90;;;;;;4841841;29;20494;-54
2022/12/04 12:54:09;;;;;;;40.67;25.37;;;3.40;99.90;;;;;;4841729;29;20511;-54
2022/12/04 12:56:40;;;;;;;42.47;26.23;;;3.30;99.90;;;;;;4855731;29;21008;-53
2022/12/04 12:59:20;;;;;;;42.67;26.30;;;3.40;99.90;;;;;;4823956;29;20840;-53
2022/12/04 13:01:54;;;;;;;41.40;25.13;;;3.40;99.90;;;;;;4835392;29;20998;-54
2022/12/04 13:04:34;;;;;;;44.60;26.63;;;3.40;99.90;;;;;;4841670;29;20503;-55
2022/12/04 13:07:20;;;;;;;44.63;25.50;;;3.40;99.90;;;;;;4841923;29;20473;-54
2022/12/04 13:09:53;;;;;;;41.80;25.53;;;3.40;99.90;;;;;;4823550;29;20478;-53
2022/12/04 13:12:23;;;;;;;42.83;25.20;;;3.30;99.90;;;;;;4827789;29;20573;-55